Louisburg, Missouri
Current Conditions -  °F | °C
As of 10:35 AM on Friday 28 Nov 2014 (Local Time) from KH21 Reporting Station
Clear Clear  
Wind Chill: 52°   Ceiling: Unl
Heat Index: 52°   Visibility: 10mi
Dew Point: 30°   Wind: 14mph
Humidity: 44%   Direction: 180°S
Pressure: 30.06"   Gusts: 23mph
Location:  37.76°N, 93.14°W
Report Text: KH21 281635Z AUTO 18012G20KT 10SM CLR 11/M01 A3006 RMK AO2
Loading
Personal Weather Stations






























Interactive Weather Map New forecast layout! Learn more

10-Day Weather Forecast

Advertisements
Track Severe Weather on mobile